Time;durP1;ratioP1;P1;durP2;ratioP2;P2;SDS_P1;SDS_P2;PMS_P1;PMS_P2;Temp;Humidity;BMP_temperature;BMP_pressure;BME280_temperature;BME280_humidity;BME280_pressure;Samples;Min_cycle;Max_cycle;Signal;HPM_P1;HPM_P2
2023/10/15 00:00:42;;;;;;;8.77;2.00;;;10.70;99.90;;;;;;2042427;28;20027;-71
2023/10/15 00:01:42;;;;;;;8.38;2.03;;;10.70;99.90;;;;;;2048202;28;20027;-71
2023/10/15 00:02:45;;;;;;;6.85;1.88;;;10.70;99.90;;;;;;2035089;29;20038;-71
2023/10/15 00:03:46;;;;;;;6.57;2.20;;;10.60;99.90;;;;;;2038517;28;20027;-71
2023/10/15 00:04:47;;;;;;;7.18;1.88;;;10.60;99.90;;;;;;2036066;28;20036;-73
2023/10/15 00:05:48;;;;;;;9.35;2.10;;;10.60;99.90;;;;;;2042830;28;20118;-72
2023/10/15 00:06:50;;;;;;;9.05;2.17;;;10.60;99.90;;;;;;2046854;28;20114;-73
2023/10/15 00:07:51;;;;;;;8.50;2.20;;;10.60;99.90;;;;;;2047106;28;20035;-72
2023/10/15 00:08:52;;;;;;;7.65;1.95;;;10.50;99.90;;;;;;2042308;28;20035;-73
2023/10/15 00:09:53;;;;;;;7.50;2.08;;;10.50;99.90;;;;;;2034535;29;20054;-72
2023/10/15 00:10:53;;;;;;;8.25;2.25;;;10.50;99.90;;;;;;2042440;28;20562;-72
2023/10/15 00:11:54;;;;;;;6.05;1.83;;;10.50;99.90;;;;;;2047178;28;20505;-71
2023/10/15 00:12:56;;;;;;;9.23;2.17;;;10.50;99.90;;;;;;2050804;28;20125;-72
2023/10/15 00:13:56;;;;;;;7.80;2.08;;;10.40;99.90;;;;;;2047866;28;20113;-72
2023/10/15 00:14:57;;;;;;;5.95;1.92;;;10.40;99.90;;;;;;2038248;29;20024;-72
2023/10/15 00:15:57;;;;;;;7.43;1.92;;;10.40;99.90;;;;;;2037888;28;20023;-72
2023/10/15 00:16:59;;;;;;;9.23;2.08;;;10.40;99.90;;;;;;2047111;28;20031;-72
2023/10/15 00:18:02;;;;;;;9.30;2.20;;;10.40;99.90;;;;;;2047121;28;20025;-71
2023/10/15 00:19:09;;;;;;;7.75;2.20;;;10.40;99.90;;;;;;2045738;28;20434;-72
2023/10/15 00:20:13;;;;;;;8.73;2.00;;;10.30;99.90;;;;;;2046385;28;20019;-72
2023/10/15 00:21:14;;;;;;;7.50;2.10;;;10.40;99.90;;;;;;2044383;28;20031;-72
2023/10/15 00:22:15;;;;;;;9.45;2.05;;;10.30;99.90;;;;;;2039332;28;20105;-72
2023/10/15 00:23:16;;;;;;;6.88;2.00;;;10.30;99.90;;;;;;2050409;28;20133;-71
2023/10/15 00:24:16;;;;;;;10.27;2.30;;;10.30;99.90;;;;;;2034470;29;20034;-72
2023/10/15 00:25:19;;;;;;;6.15;2.08;;;10.30;99.90;;;;;;2034540;29;20039;-72
2023/10/15 00:26:21;;;;;;;8.55;2.05;;;10.40;99.90;;;;;;2051030;28;20054;-73
2023/10/15 00:27:27;;;;;;;8.63;2.33;;;10.30;99.90;;;;;;2050814;28;20038;-72
2023/10/15 00:28:29;;;;;;;7.95;2.10;;;10.40;99.90;;;;;;2050965;28;20029;-72
2023/10/15 00:29:29;;;;;;;6.07;2.15;;;10.30;99.90;;;;;;2051089;28;20042;-72
2023/10/15 00:30:33;;;;;;;8.27;2.28;;;10.30;99.90;;;;;;2049545;28;20122;-71
2023/10/15 00:31:34;;;;;;;10.18;2.20;;;10.30;99.90;;;;;;2050121;28;20030;-72
2023/10/15 00:32:35;;;;;;;7.07;2.15;;;10.30;99.90;;;;;;2049736;28;20031;-73
2023/10/15 00:33:37;;;;;;;6.90;1.95;;;10.30;99.90;;;;;;2048836;28;20058;-72
2023/10/15 00:34:38;;;;;;;7.13;2.20;;;10.20;99.90;;;;;;2039574;28;20051;-72
2023/10/15 00:35:44;;;;;;;7.18;1.98;;;10.30;99.90;;;;;;2040532;28;20031;-72
2023/10/15 00:36:48;;;;;;;8.45;2.40;;;10.30;99.90;;;;;;2039165;28;20046;-72
2023/10/15 00:37:55;;;;;;;6.97;1.90;;;10.30;99.90;;;;;;2042795;28;20032;-72
2023/10/15 00:38:55;;;;;;;7.90;2.08;;;10.30;99.90;;;;;;2054172;28;20417;-72
2023/10/15 00:39:59;;;;;;;9.27;2.20;;;10.20;99.90;;;;;;2050778;28;20027;-72
2023/10/15 00:41:08;;;;;;;8.07;2.08;;;10.20;99.90;;;;;;2039019;28;20029;-72
2023/10/15 00:42:08;;;;;;;8.02;1.83;;;10.20;99.90;;;;;;2041138;28;20023;-72
2023/10/15 00:43:10;;;;;;;9.80;2.20;;;10.20;99.90;;;;;;2040278;28;20448;-71
2023/10/15 00:44:10;;;;;;;7.07;2.20;;;10.20;99.90;;;;;;2044039;28;20542;-72
2023/10/15 00:45:14;;;;;;;6.95;2.20;;;10.20;99.90;;;;;;2054059;28;20027;-73
2023/10/15 00:46:17;;;;;;;9.07;2.25;;;10.10;99.90;;;;;;2045621;28;20027;-72
2023/10/15 00:47:19;;;;;;;9.20;2.03;;;10.10;99.90;;;;;;2045734;28;20034;-72
2023/10/15 00:48:24;;;;;;;7.82;2.08;;;10.10;99.90;;;;;;2026691;29;20051;-72
2023/10/15 00:49:26;;;;;;;8.43;2.13;;;10.10;99.90;;;;;;2026660;29;20201;-71
2023/10/15 00:50:31;;;;;;;8.88;2.22;;;10.10;99.90;;;;;;2038201;28;20031;-71
2023/10/15 00:51:31;;;;;;;10.75;2.33;;;10.10;99.90;;;;;;2047946;28;20641;-70
2023/10/15 00:52:34;;;;;;;14.48;2.10;;;10.00;99.90;;;;;;2050839;28;20050;-71
2023/10/15 00:53:41;;;;;;;7.18;2.05;;;10.00;99.90;;;;;;2050772;28;20046;-71
2023/10/15 00:54:42;;;;;;;7.90;2.13;;;10.00;99.90;;;;;;2047021;28;20513;-71
2023/10/15 00:55:43;;;;;;;11.55;2.20;;;10.00;99.90;;;;;;2046773;28;20050;-71
2023/10/15 00:56:47;;;;;;;8.45;2.05;;;10.00;99.90;;;;;;2046729;28;20563;-72
2023/10/15 00:57:55;;;;;;;8.40;2.10;;;10.00;99.90;;;;;;2054699;28;20023;-71
2023/10/15 00:59:13;;;;;;;8.23;2.38;;;10.00;99.90;;;;;;2048291;28;20219;-71
2023/10/15 01:01:40;;;;;;;10.13;2.20;;;9.90;99.90;;;;;;2044474;28;20119;-72
2023/10/15 01:02:44;;;;;;;10.15;2.10;;;9.90;99.90;;;;;;2046607;28;20031;-72
2023/10/15 01:03:55;;;;;;;9.05;2.20;;;9.80;99.90;;;;;;2050543;28;20037;-71
2023/10/15 01:05:00;;;;;;;7.88;2.25;;;9.80;99.90;;;;;;2027068;28;20031;-71
2023/10/15 01:06:05;;;;;;;7.90;1.92;;;9.80;99.90;;;;;;2037594;28;20020;-71
2023/10/15 01:07:32;;;;;;;6.95;2.15;;;9.80;99.90;;;;;;2046829;28;20102;-72
2023/10/15 01:08:38;;;;;;;9.90;2.08;;;9.80;99.90;;;;;;2039451;28;20117;-72
2023/10/15 01:09:40;;;;;;;13.57;2.28;;;9.70;99.90;;;;;;2041362;28;20126;-73
2023/10/15 01:10:42;;;;;;;9.35;2.20;;;9.70;99.90;;;;;;2034446;29;20036;-72
2023/10/15 01:11:44;;;;;;;9.05;2.15;;;9.70;99.90;;;;;;2042212;28;20070;-70
2023/10/15 01:12:45;;;;;;;7.82;2.15;;;9.70;99.90;;;;;;2050893;28;20031;-72
2023/10/15 01:13:45;;;;;;;8.25;2.40;;;9.70;99.90;;;;;;2039233;28;20023;-72
2023/10/15 01:14:46;;;;;;;15.43;2.40;;;9.70;99.90;;;;;;2041155;28;20054;-70
2023/10/15 01:15:50;;;;;;;9.65;2.22;;;9.70;99.90;;;;;;2053610;28;20049;-71
2023/10/15 01:16:51;;;;;;;10.18;1.80;;;9.70;99.90;;;;;;2038275;28;20051;-70
2023/10/15 01:18:00;;;;;;;9.02;2.40;;;9.70;99.90;;;;;;2041509;28;20027;-71
2023/10/15 01:20:18;;;;;;;7.68;2.08;;;9.70;99.90;;;;;;2034824;28;20035;-71
2023/10/15 01:21:19;;;;;;;9.70;2.17;;;9.70;99.90;;;;;;2046645;28;20020;-71
2023/10/15 01:22:23;;;;;;;7.30;1.90;;;9.70;99.90;;;;;;2053438;28;20034;-71
2023/10/15 01:23:31;;;;;;;7.88;2.38;;;9.60;99.90;;;;;;2042975;28;20023;-71
2023/10/15 01:24:38;;;;;;;10.95;2.40;;;9.60;99.90;;;;;;2041368;28;20033;-72
2023/10/15 01:25:46;;;;;;;6.93;1.90;;;9.60;99.90;;;;;;2048815;28;20035;-72
2023/10/15 01:28:06;;;;;;;9.68;2.50;;;9.60;99.90;;;;;;2036309;28;20098;-72
2023/10/15 01:29:07;;;;;;;9.70;2.20;;;9.60;99.90;;;;;;2053106;28;20039;-72
2023/10/15 01:30:17;;;;;;;8.63;2.20;;;9.60;99.90;;;;;;2044404;28;20130;-72
2023/10/15 01:31:17;;;;;;;6.47;1.88;;;9.50;99.90;;;;;;2041253;28;20079;-70
2023/10/15 01:32:30;;;;;;;11.75;2.22;;;9.50;99.90;;;;;;2034081;29;20152;-70
2023/10/15 01:33:36;;;;;;;8.70;2.30;;;9.50;99.90;;;;;;2041464;28;20035;-71
2023/10/15 01:34:40;;;;;;;7.22;2.17;;;9.50;99.90;;;;;;2047511;28;20043;-71
2023/10/15 01:35:44;;;;;;;11.05;2.60;;;9.50;99.90;;;;;;2036596;29;20024;-71
2023/10/15 01:36:47;;;;;;;9.05;2.20;;;9.50;99.90;;;;;;2041241;28;20035;-71
2023/10/15 01:38:09;;;;;;;11.50;2.17;;;9.50;99.90;;;;;;2042747;29;20042;-70
2023/10/15 01:39:10;;;;;;;9.73;2.30;;;9.50;99.90;;;;;;2026328;29;20035;-71
2023/10/15 01:41:16;;;;;;;7.72;2.00;;;9.40;99.90;;;;;;2042143;29;20055;-72
2023/10/15 01:42:34;;;;;;;8.27;2.22;;;9.40;99.90;;;;;;2042547;29;20046;-72
2023/10/15 01:43:35;;;;;;;7.55;2.33;;;9.40;99.90;;;;;;2028051;29;20043;-72
2023/10/15 01:44:47;;;;;;;6.97;2.13;;;9.30;99.90;;;;;;2033417;29;20043;-72
2023/10/15 01:45:49;;;;;;;9.32;2.20;;;9.30;99.90;;;;;;2040367;29;20083;-71
2023/10/15 01:47:07;;;;;;;7.78;2.10;;;9.30;99.90;;;;;;2031784;29;20480;-72
2023/10/15 01:48:24;;;;;;;9.48;2.38;;;9.30;99.90;;;;;;2036623;29;20031;-71
2023/10/15 01:49:34;;;;;;;10.00;2.20;;;9.30;99.90;;;;;;2040230;28;20455;-73
2023/10/15 01:50:44;;;;;;;10.43;2.38;;;9.30;99.90;;;;;;2038937;29;20031;-71
2023/10/15 01:51:45;;;;;;;7.05;2.00;;;9.30;99.90;;;;;;2037767;29;20427;-72
2023/10/15 01:52:45;;;;;;;8.38;2.30;;;9.20;99.90;;;;;;2031697;29;20095;-71
2023/10/15 01:53:47;;;;;;;6.85;1.98;;;9.20;99.90;;;;;;2027691;29;20068;-72
2023/10/15 01:54:48;;;;;;;9.48;2.33;;;9.20;99.90;;;;;;2032400;29;20035;-71
2023/10/15 01:55:59;;;;;;;9.15;2.25;;;9.20;99.90;;;;;;2043668;29;20097;-71
2023/10/15 01:57:06;;;;;;;8.48;2.20;;;9.20;99.90;;;;;;2029132;29;20114;-71
2023/10/15 01:58:11;;;;;;;9.20;2.40;;;9.20;99.90;;;;;;2024529;29;20099;-70
2023/10/15 01:59:12;;;;;;;9.73;2.40;;;9.20;99.90;;;;;;2034738;29;20580;-70
2023/10/15 02:01:34;;;;;;;9.35;2.50;;;9.10;99.90;;;;;;2035525;29;20046;-71
2023/10/15 02:02:35;;;;;;;10.70;2.20;;;9.10;99.90;;;;;;2032920;29;20062;-71
2023/10/15 02:03:37;;;;;;;8.80;2.50;;;9.10;99.90;;;;;;2031780;29;20054;-73
2023/10/15 02:04:44;;;;;;;9.50;2.47;;;9.10;99.90;;;;;;2041607;29;20023;-68
2023/10/15 02:05:45;;;;;;;6.80;2.10;;;9.10;99.90;;;;;;2039941;29;20731;-73
2023/10/15 02:06:46;;;;;;;8.35;2.50;;;9.00;99.90;;;;;;2043067;29;20055;-71
2023/10/15 02:07:47;;;;;;;10.25;2.53;;;9.10;99.90;;;;;;2044317;29;20023;-71
2023/10/15 02:08:51;;;;;;;12.55;2.42;;;9.00;99.90;;;;;;2041070;28;20020;-72
2023/10/15 02:09:51;;;;;;;7.82;2.08;;;9.00;99.90;;;;;;2027759;29;20028;-71
2023/10/15 02:10:52;;;;;;;9.23;2.17;;;9.00;99.90;;;;;;2035118;29;20024;-71
2023/10/15 02:11:54;;;;;;;10.57;2.33;;;9.00;99.90;;;;;;2031869;29;20034;-72
2023/10/15 02:13:04;;;;;;;9.75;2.15;;;9.00;99.90;;;;;;2024006;29;20056;-72
2023/10/15 02:14:08;;;;;;;8.82;2.40;;;9.00;99.90;;;;;;2030500;29;20039;-72
2023/10/15 02:15:22;;;;;;;7.57;2.25;;;9.00;99.90;;;;;;2042054;29;20035;-72
2023/10/15 02:16:29;;;;;;;9.85;2.30;;;9.00;99.90;;;;;;2040099;29;20038;-70
2023/10/15 02:17:33;;;;;;;12.02;2.03;;;9.00;99.90;;;;;;2037341;29;20050;-71
2023/10/15 02:18:35;;;;;;;8.68;2.53;;;8.90;99.90;;;;;;2035550;29;20074;-72
2023/10/15 02:19:40;;;;;;;9.70;2.65;;;8.90;99.90;;;;;;2026463;29;20060;-72
2023/10/15 02:20:45;;;;;;;9.13;2.38;;;8.90;99.90;;;;;;2032168;29;20110;-72
2023/10/15 02:21:50;;;;;;;8.98;2.40;;;8.90;99.90;;;;;;2034196;29;20519;-71
2023/10/15 02:22:52;;;;;;;11.70;2.40;;;8.90;99.90;;;;;;2032824;29;20024;-71
2023/10/15 02:23:56;;;;;;;9.65;2.08;;;8.90;99.90;;;;;;2040106;29;20032;-71
2023/10/15 02:24:56;;;;;;;9.70;2.33;;;8.90;99.90;;;;;;2036300;29;20047;-71
2023/10/15 02:26:00;;;;;;;10.13;2.38;;;8.90;99.90;;;;;;2035536;29;20050;-71
2023/10/15 02:27:08;;;;;;;7.97;2.20;;;8.90;99.90;;;;;;2035438;29;20016;-71
2023/10/15 02:28:09;;;;;;;12.13;2.60;;;8.90;99.90;;;;;;2044051;29;20118;-70
2023/10/15 02:30:49;;;;;;;11.90;2.15;;;8.80;99.90;;;;;;2021774;29;20028;-71
2023/10/15 02:31:50;;;;;;;9.15;2.75;;;8.80;99.90;;;;;;2019215;29;20176;-70
2023/10/15 02:32:53;;;;;;;8.38;2.45;;;8.80;99.90;;;;;;2019263;29;20064;-71
2023/10/15 02:33:55;;;;;;;10.93;2.80;;;8.80;99.90;;;;;;2023105;29;20043;-71
2023/10/15 02:34:57;;;;;;;10.00;2.50;;;8.80;99.90;;;;;;2026607;29;20511;-72
2023/10/15 02:36:06;;;;;;;13.68;2.65;;;8.80;99.90;;;;;;2019666;29;20028;-71
2023/10/15 02:37:10;;;;;;;10.48;2.45;;;8.80;99.90;;;;;;2051777;28;20113;-70
2023/10/15 02:38:12;;;;;;;9.38;2.38;;;8.80;99.90;;;;;;2052076;28;20019;-70
2023/10/15 02:39:13;;;;;;;11.63;2.58;;;8.70;99.90;;;;;;2049589;28;20031;-70
2023/10/15 02:40:17;;;;;;;12.27;2.60;;;8.70;99.90;;;;;;2045375;28;20196;-71
2023/10/15 02:41:40;;;;;;;11.75;2.65;;;8.70;99.90;;;;;;2047975;28;20035;-71
2023/10/15 02:42:52;;;;;;;10.18;2.58;;;8.70;99.90;;;;;;2047553;28;20041;-71
2023/10/15 02:43:56;;;;;;;13.95;2.60;;;8.70;99.90;;;;;;2047380;28;20085;-71
2023/10/15 02:45:01;;;;;;;9.00;2.20;;;8.70;99.90;;;;;;2051779;28;20026;-71
2023/10/15 02:46:47;;;;;;;13.27;2.33;;;8.60;99.90;;;;;;2034404;29;20090;-72
2023/10/15 02:49:09;;;;;;;9.02;2.33;;;8.60;99.90;;;;;;2019090;29;20567;-71
2023/10/15 02:50:16;;;;;;;10.93;2.60;;;8.60;99.90;;;;;;2011400;29;20033;-71
2023/10/15 02:51:19;;;;;;;9.07;2.50;;;8.60;99.90;;;;;;2015968;29;20458;-71
2023/10/15 02:52:23;;;;;;;11.60;2.55;;;8.60;99.90;;;;;;2042877;29;20019;-71
2023/10/15 02:53:24;;;;;;;12.60;2.55;;;8.60;99.90;;;;;;2051364;28;20041;-71
2023/10/15 02:54:28;;;;;;;9.38;2.45;;;8.60;99.90;;;;;;2047525;28;20031;-71
2023/10/15 02:55:35;;;;;;;7.63;2.28;;;8.60;99.90;;;;;;2030152;29;20035;-71
2023/10/15 02:56:35;;;;;;;10.23;2.40;;;8.60;99.90;;;;;;2027673;29;20103;-71
2023/10/15 02:57:38;;;;;;;11.25;2.40;;;8.60;99.90;;;;;;2037799;29;20068;-72
2023/10/15 02:58:40;;;;;;;11.32;2.60;;;8.50;99.90;;;;;;2038137;28;20050;-71
2023/10/15 02:59:50;;;;;;;13.75;2.67;;;8.60;99.90;;;;;;2039600;29;20053;-71
2023/10/15 03:00:51;;;;;;;11.85;2.40;;;8.60;99.90;;;;;;2038332;28;20036;-71
2023/10/15 03:01:57;;;;;;;9.30;2.50;;;8.60;99.90;;;;;;2042112;29;20176;-70
2023/10/15 03:03:06;;;;;;;10.40;2.40;;;8.60;99.90;;;;;;2039124;29;20089;-71
2023/10/15 03:04:09;;;;;;;10.90;2.75;;;8.50;99.90;;;;;;2032192;29;20503;-71
2023/10/15 03:05:15;;;;;;;8.82;2.30;;;8.50;99.90;;;;;;2036195;29;20469;-72
2023/10/15 03:06:41;;;;;;;9.27;2.45;;;8.50;99.90;;;;;;2042118;29;20035;-70
2023/10/15 03:07:45;;;;;;;9.88;2.42;;;8.50;99.90;;;;;;2041891;28;20045;-71
2023/10/15 03:08:46;;;;;;;12.30;2.75;;;8.50;99.90;;;;;;2047500;28;20027;-71
2023/10/15 03:09:56;;;;;;;12.43;2.33;;;8.50;99.90;;;;;;2049406;28;20049;-71
2023/10/15 03:11:12;;;;;;;13.00;2.60;;;8.50;99.90;;;;;;2042595;29;20046;-71
2023/10/15 03:12:14;;;;;;;10.68;2.58;;;8.50;99.90;;;;;;2046441;28;20520;-71
2023/10/15 03:13:14;;;;;;;13.52;2.80;;;8.50;99.90;;;;;;2052304;28;20038;-70
2023/10/15 03:14:15;;;;;;;11.60;2.67;;;8.50;99.90;;;;;;2045442;28;20028;-71
2023/10/15 03:15:17;;;;;;;10.70;2.60;;;8.50;99.90;;;;;;2035024;29;20027;-72
2023/10/15 03:16:18;;;;;;;10.68;2.50;;;8.50;99.90;;;;;;2033641;29;20144;-71
2023/10/15 03:17:25;;;;;;;12.00;2.65;;;8.50;99.90;;;;;;2040541;29;20063;-71
2023/10/15 03:18:28;;;;;;;11.43;2.72;;;8.50;99.90;;;;;;2042672;29;20027;-71
2023/10/15 03:19:33;;;;;;;9.98;2.75;;;8.40;99.90;;;;;;2039515;28;20109;-71
2023/10/15 03:20:40;;;;;;;10.18;2.47;;;8.40;99.90;;;;;;2035459;29;20114;-71
2023/10/15 03:21:40;;;;;;;11.85;2.40;;;8.40;99.90;;;;;;2035810;29;20716;-71
2023/10/15 03:22:41;;;;;;;12.07;2.60;;;8.40;99.90;;;;;;2042732;28;20039;-71
2023/10/15 03:23:43;;;;;;;9.02;2.35;;;8.40;99.90;;;;;;2047595;28;20093;-71
2023/10/15 03:24:44;;;;;;;7.13;2.38;;;8.40;99.90;;;;;;2051442;28;20045;-71
2023/10/15 03:25:57;;;;;;;10.70;2.58;;;8.40;99.90;;;;;;2049330;28;20038;-71
2023/10/15 03:27:00;;;;;;;11.63;2.95;;;8.40;99.90;;;;;;2038907;29;20039;-71
2023/10/15 03:28:00;;;;;;;11.07;2.55;;;8.40;99.90;;;;;;2035392;29;20136;-69
2023/10/15 03:29:07;;;;;;;10.00;2.50;;;8.40;99.90;;;;;;2049496;28;20158;-70
2023/10/15 03:30:13;;;;;;;14.18;2.50;;;8.40;99.90;;;;;;2051363;28;20023;-71
2023/10/15 03:31:14;;;;;;;10.18;2.40;;;8.40;99.90;;;;;;2052974;28;20093;-71
2023/10/15 03:32:15;;;;;;;11.30;2.72;;;8.40;99.90;;;;;;2054373;28;20678;-72
2023/10/15 03:33:18;;;;;;;11.25;2.72;;;8.40;99.90;;;;;;2043561;28;20035;-71
2023/10/15 03:34:22;;;;;;;11.18;2.70;;;8.40;99.90;;;;;;2043659;29;20512;-71
2023/10/15 03:35:38;;;;;;;11.32;2.92;;;8.40;99.90;;;;;;2047244;28;20106;-72
2023/10/15 03:36:58;;;;;;;11.25;2.60;;;8.40;99.90;;;;;;2040130;28;20055;-71
2023/10/15 03:38:05;;;;;;;10.80;2.60;;;8.40;99.90;;;;;;2034687;29;20757;-71
2023/10/15 03:39:15;;;;;;;9.07;2.50;;;8.40;99.90;;;;;;2035592;29;20015;-71
2023/10/15 03:40:32;;;;;;;9.60;2.65;;;8.40;99.90;;;;;;2040422;28;20615;-71
2023/10/15 03:41:39;;;;;;;11.32;2.50;;;8.30;99.90;;;;;;2051297;28;20043;-71
2023/10/15 03:42:40;;;;;;;11.35;2.45;;;8.40;99.90;;;;;;2038802;28;20074;-71
2023/10/15 03:43:41;;;;;;;10.02;2.47;;;8.30;99.90;;;;;;2042768;28;20201;-70
2023/10/15 03:44:44;;;;;;;11.90;2.55;;;8.40;99.90;;;;;;2051334;28;20058;-70
2023/10/15 03:45:51;;;;;;;12.10;2.50;;;8.40;99.90;;;;;;2051482;28;20545;-71
2023/10/15 03:46:51;;;;;;;15.45;2.80;;;8.40;99.90;;;;;;2047287;28;20038;-70
2023/10/15 03:47:54;;;;;;;11.27;2.83;;;8.40;99.90;;;;;;2037805;29;20121;-70
2023/10/15 03:48:54;;;;;;;11.18;2.55;;;8.40;99.90;;;;;;2043042;28;20019;-70
2023/10/15 03:49:56;;;;;;;12.98;2.90;;;8.40;99.90;;;;;;2051305;28;20062;-70
2023/10/15 03:50:58;;;;;;;14.00;2.95;;;8.40;99.90;;;;;;2048077;28;20027;-70
2023/10/15 03:51:59;;;;;;;11.35;2.78;;;8.40;99.90;;;;;;2043436;28;20030;-70
2023/10/15 03:53:00;;;;;;;11.27;2.67;;;8.40;99.90;;;;;;2047816;28;20690;-70
2023/10/15 03:54:06;;;;;;;12.88;2.72;;;8.30;99.90;;;;;;2051472;28;20042;-71
2023/10/15 03:55:07;;;;;;;8.68;2.63;;;8.30;99.90;;;;;;2051197;28;20038;-71
2023/10/15 03:56:08;;;;;;;11.30;2.63;;;8.40;99.90;;;;;;2050207;28;20434;-69
2023/10/15 03:57:09;;;;;;;9.32;2.33;;;8.40;99.90;;;;;;2048422;28;20094;-70
2023/10/15 03:58:13;;;;;;;11.40;2.92;;;8.40;99.90;;;;;;2051228;28;20458;-71
2023/10/15 03:59:14;;;;;;;8.43;2.47;;;8.40;99.90;;;;;;2051298;28;20422;-70
2023/10/15 04:01:37;;;;;;;11.95;2.38;;;8.40;99.90;;;;;;2043871;28;20490;-70
2023/10/15 04:04:01;;;;;;;12.63;2.70;;;8.40;99.90;;;;;;2046804;28;20025;-70
2023/10/15 04:05:08;;;;;;;14.30;2.75;;;8.30;99.90;;;;;;2032059;28;20405;-70
2023/10/15 04:06:09;;;;;;;13.75;2.65;;;8.40;99.90;;;;;;2039692;28;20031;-71
2023/10/15 04:07:18;;;;;;;10.98;2.60;;;8.40;99.90;;;;;;2042271;28;20118;-70
2023/10/15 04:08:19;;;;;;;9.15;2.50;;;8.40;99.90;;;;;;2039756;28;20035;-75
2023/10/15 04:09:24;;;;;;;9.63;2.60;;;8.40;99.90;;;;;;2047377;28;20062;-68
2023/10/15 04:10:33;;;;;;;15.60;3.50;;;8.30;99.90;;;;;;2047886;28;20038;-71
2023/10/15 04:11:43;;;;;;;11.52;2.67;;;8.40;99.90;;;;;;2035246;28;20046;-71
2023/10/15 04:12:44;;;;;;;14.10;2.83;;;8.40;99.90;;;;;;2041775;28;20046;-75
2023/10/15 04:13:45;;;;;;;14.43;2.78;;;8.40;99.90;;;;;;2047125;28;20086;-75
2023/10/15 04:14:46;;;;;;;15.23;2.70;;;8.30;99.90;;;;;;2051195;28;20109;-75
2023/10/15 04:15:50;;;;;;;15.52;2.90;;;8.40;99.90;;;;;;2048847;28;20026;-74
2023/10/15 04:16:50;;;;;;;14.13;3.20;;;8.40;99.90;;;;;;2052691;28;20035;-75
2023/10/15 04:17:52;;;;;;;11.93;2.78;;;8.40;99.90;;;;;;2051731;28;20155;-75
2023/10/15 04:18:52;;;;;;;15.18;2.58;;;8.40;99.90;;;;;;2047086;28;20119;-75
2023/10/15 04:19:53;;;;;;;14.93;2.65;;;8.40;99.90;;;;;;2049998;28;20030;-75
2023/10/15 04:20:55;;;;;;;12.55;2.58;;;8.40;99.90;;;;;;2051227;28;20097;-75
2023/10/15 04:22:14;;;;;;;12.57;2.90;;;8.40;99.90;;;;;;2050885;28;20030;-75
2023/10/15 04:23:30;;;;;;;17.02;2.70;;;8.40;99.90;;;;;;2046623;28;20031;-75
2023/10/15 04:24:36;;;;;;;11.15;2.70;;;8.40;99.90;;;;;;2047187;28;20086;-77
2023/10/15 04:25:37;;;;;;;13.45;2.80;;;8.40;99.90;;;;;;2040675;28;20166;-77
2023/10/15 04:26:48;;;;;;;9.68;2.60;;;8.40;99.90;;;;;;2042519;28;20039;-75
2023/10/15 04:27:49;;;;;;;;;;;8.40;99.90;;;;;;2044162;28;20066;-76
2023/10/15 04:28:53;;;;;;;12.63;2.90;;;8.40;99.90;;;;;;2051023;28;19914;-75
2023/10/15 04:29:55;;;;;;;15.60;2.60;;;8.40;99.90;;;;;;2039488;28;20032;-76
2023/10/15 04:30:56;;;;;;;15.32;2.90;;;8.40;99.90;;;;;;2041737;28;20043;-75
2023/10/15 04:32:04;;;;;;;11.63;2.90;;;8.40;99.90;;;;;;2047911;28;20050;-76
2023/10/15 04:33:13;;;;;;;10.48;2.75;;;8.30;99.90;;;;;;2034674;29;20059;-76
2023/10/15 04:34:17;;;;;;;10.15;2.60;;;8.30;99.90;;;;;;2038818;29;20033;-76
2023/10/15 04:35:25;;;;;;;11.15;2.70;;;8.30;99.90;;;;;;2024434;29;20076;-75
2023/10/15 04:36:26;;;;;;;15.63;2.70;;;8.30;99.90;;;;;;2020752;29;20043;-76
2023/10/15 04:37:29;;;;;;;10.63;2.42;;;8.30;99.90;;;;;;2034642;29;20035;-76
2023/10/15 04:38:30;;;;;;;12.82;2.72;;;8.30;99.90;;;;;;2042841;28;20050;-75
2023/10/15 04:39:31;;;;;;;13.50;3.20;;;8.40;99.90;;;;;;2038732;29;20058;-76
2023/10/15 04:40:39;;;;;;;12.02;2.58;;;8.30;99.90;;;;;;2038721;29;20038;-74
2023/10/15 04:41:43;;;;;;;13.60;2.67;;;8.40;99.90;;;;;;2040167;29;20031;-75
2023/10/15 04:42:48;;;;;;;12.13;2.85;;;8.40;99.90;;;;;;2042796;29;20087;-75
2023/10/15 04:43:49;;;;;;;9.52;2.70;;;8.30;99.90;;;;;;2036555;29;20032;-74
2023/10/15 04:44:50;;;;;;;11.00;2.80;;;8.30;99.90;;;;;;2041348;29;20023;-74
2023/10/15 04:45:51;;;;;;;15.95;2.97;;;8.30;99.90;;;;;;2039183;29;20688;-75
2023/10/15 04:47:04;;;;;;;16.63;2.83;;;8.30;99.90;;;;;;2042856;29;20061;-75
2023/10/15 04:48:12;;;;;;;13.57;2.53;;;8.30;99.90;;;;;;2035951;29;20034;-75
2023/10/15 04:49:17;;;;;;;15.93;2.92;;;8.30;99.90;;;;;;2037399;29;20047;-75
2023/10/15 04:50:18;;;;;;;12.23;2.85;;;8.30;99.90;;;;;;2031209;29;20419;-75
2023/10/15 04:51:18;;;;;;;13.07;3.08;;;8.30;99.90;;;;;;2033753;29;20040;-75
2023/10/15 04:52:19;;;;;;;13.80;2.90;;;8.30;99.90;;;;;;2040979;29;20035;-74
2023/10/15 04:54:23;;;;;;;11.13;3.08;;;8.30;99.90;;;;;;2042881;28;20026;-76
2023/10/15 04:55:24;;;;;;;12.98;2.90;;;8.30;99.90;;;;;;2039126;29;20039;-76
2023/10/15 04:56:24;;;;;;;13.20;2.90;;;8.30;99.90;;;;;;2043063;29;20435;-74
2023/10/15 04:57:25;;;;;;;13.93;2.80;;;8.30;99.90;;;;;;2043193;29;20541;-76
2023/10/15 04:58:27;;;;;;;13.93;3.00;;;8.20;99.90;;;;;;2042780;29;20055;-75
2023/10/15 04:59:27;;;;;;;15.43;3.20;;;8.20;99.90;;;;;;2042881;29;20043;-76
2023/10/15 05:00:28;;;;;;;14.90;3.33;;;8.20;99.90;;;;;;2039250;29;20035;-75
2023/10/15 05:01:30;;;;;;;14.18;2.83;;;8.20;99.90;;;;;;2039316;29;20499;-74
2023/10/15 05:02:30;;;;;;;14.73;2.80;;;8.20;99.90;;;;;;2031223;29;20035;-74
2023/10/15 05:03:32;;;;;;;10.30;2.70;;;8.20;99.90;;;;;;2033607;29;20131;-74
2023/10/15 05:04:33;;;;;;;18.17;3.00;;;8.30;99.90;;;;;;2042841;29;20019;-75
2023/10/15 05:05:34;;;;;;;13.15;2.83;;;8.20;99.90;;;;;;2037679;29;20082;-75
2023/10/15 05:06:35;;;;;;;18.35;3.30;;;8.20;99.90;;;;;;2042593;29;20032;-75
2023/10/15 05:07:36;;;;;;;13.05;3.20;;;8.20;99.90;;;;;;2043039;29;20031;-76
2023/10/15 05:08:40;;;;;;;13.77;2.90;;;8.20;99.90;;;;;;2031863;29;20024;-76
2023/10/15 05:09:43;;;;;;;14.52;3.08;;;8.20;99.90;;;;;;2019229;29;20127;-75
2023/10/15 05:10:45;;;;;;;13.25;3.00;;;8.20;99.90;;;;;;2030698;29;20040;-75
2023/10/15 05:11:45;;;;;;;12.63;2.63;;;8.20;99.90;;;;;;2039132;29;20028;-75
2023/10/15 05:12:46;;;;;;;15.27;3.00;;;8.20;99.90;;;;;;2021752;29;20056;-75
2023/10/15 05:13:50;;;;;;;15.02;3.00;;;8.20;99.90;;;;;;2022655;29;20107;-74
2023/10/15 05:14:50;;;;;;;14.68;2.88;;;8.20;99.90;;;;;;2036357;29;20040;-75
2023/10/15 05:15:51;;;;;;;12.18;2.63;;;8.20;99.90;;;;;;2037232;29;20119;-75
2023/10/15 05:16:52;;;;;;;14.60;3.05;;;8.20;99.90;;;;;;2038729;29;20037;-75
2023/10/15 05:17:53;;;;;;;13.15;2.97;;;8.20;99.90;;;;;;2040374;29;20102;-75
2023/10/15 05:18:53;;;;;;;17.50;3.17;;;8.20;99.90;;;;;;2042580;29;20522;-75
2023/10/15 05:19:54;;;;;;;14.45;3.00;;;8.20;99.90;;;;;;2034266;29;20051;-75
2023/10/15 05:20:55;;;;;;;14.00;3.13;;;8.20;99.90;;;;;;2034160;29;20032;-75
2023/10/15 05:21:56;;;;;;;13.93;3.10;;;8.20;99.90;;;;;;2038557;28;20035;-75
2023/10/15 05:22:56;;;;;;;15.88;3.00;;;8.10;99.90;;;;;;2042663;29;20035;-75
2023/10/15 05:23:57;;;;;;;12.38;2.58;;;8.10;99.90;;;;;;2038857;29;20028;-75
2023/10/15 05:24:58;;;;;;;11.85;3.00;;;8.10;99.90;;;;;;2036532;29;20038;-75
2023/10/15 05:25:59;;;;;;;10.63;3.10;;;8.20;99.90;;;;;;2041521;29;20567;-75
2023/10/15 05:26:59;;;;;;;12.40;2.70;;;8.10;99.90;;;;;;2030228;29;20063;-75
2023/10/15 05:28:00;;;;;;;11.20;2.65;;;8.10;99.90;;;;;;2034381;29;20024;-74
2023/10/15 05:29:01;;;;;;;14.75;2.90;;;8.10;99.90;;;;;;2030112;29;20273;-75
2023/10/15 05:30:02;;;;;;;14.55;3.33;;;8.10;99.90;;;;;;2022448;29;20060;-76
2023/10/15 05:31:03;;;;;;;11.60;2.70;;;8.10;99.90;;;;;;2030284;29;20031;-75
2023/10/15 05:32:03;;;;;;;17.67;3.35;;;8.10;99.90;;;;;;2034141;29;20120;-74
2023/10/15 05:33:04;;;;;;;11.95;3.05;;;8.10;99.90;;;;;;2039428;29;20903;-75
2023/10/15 05:34:07;;;;;;;12.05;2.90;;;8.20;99.90;;;;;;2038833;28;20569;-76
2023/10/15 05:35:08;;;;;;;9.85;2.85;;;8.20;99.90;;;;;;2046917;28;20035;-75
2023/10/15 05:36:08;;;;;;;15.80;2.90;;;8.10;99.90;;;;;;2046626;28;20050;-75
2023/10/15 05:37:09;;;;;;;10.65;2.75;;;8.10;99.90;;;;;;2046572;28;20050;-75
2023/10/15 05:38:10;;;;;;;17.40;3.08;;;8.10;99.90;;;;;;2038767;28;20035;-75
2023/10/15 05:39:10;;;;;;;11.68;2.80;;;8.10;99.90;;;;;;2050535;28;20019;-74
2023/10/15 05:40:18;;;;;;;12.25;2.75;;;8.10;99.90;;;;;;2046609;28;20808;-74
2023/10/15 05:41:19;;;;;;;15.07;3.15;;;8.10;99.90;;;;;;2047809;28;20042;-75
2023/10/15 05:42:20;;;;;;;15.63;3.42;;;8.10;99.90;;;;;;2049902;28;20034;-75
2023/10/15 05:43:21;;;;;;;14.38;3.17;;;8.10;99.90;;;;;;2049010;28;20033;-75
2023/10/15 05:44:21;;;;;;;10.60;2.92;;;8.10;99.90;;;;;;2048018;28;20202;-74
2023/10/15 05:45:22;;;;;;;12.10;2.70;;;8.10;99.90;;;;;;2046585;28;20035;-75
2023/10/15 05:46:22;;;;;;;14.18;3.38;;;8.10;99.90;;;;;;2045028;28;20047;-74
2023/10/15 05:47:23;;;;;;;14.70;3.00;;;8.10;99.90;;;;;;2048233;28;20023;-74